createdAt,value
2022-10-23T00:05:19.388Z,8.8
2022-10-23T00:15:42.683Z,8.8
2022-10-23T00:25:37.324Z,8.7
2022-10-23T00:35:39.113Z,8.6
2022-10-23T00:45:41.399Z,8.4
2022-10-23T00:55:43.440Z,8.4
2022-10-23T01:05:45.289Z,8.2
2022-10-23T01:35:59.442Z,8.1
2022-10-23T01:55:56.346Z,8
2022-10-23T02:05:58.873Z,8
2022-10-23T02:16:08.004Z,8
2022-10-23T02:26:03.423Z,8
2022-10-23T02:36:12.417Z,8.1
2022-10-23T02:46:07.788Z,8.3
2022-10-23T03:06:11.365Z,8.4
2022-10-23T03:16:20.710Z,8.5
2022-10-23T03:26:15.444Z,8.4
2022-10-23T03:36:17.831Z,8.4
2022-10-23T03:56:22.181Z,8.3
2022-10-23T04:26:29.506Z,8.1
2022-10-23T04:46:34.437Z,8.7
2022-10-23T04:56:36.522Z,8.8
2022-10-23T05:16:40.757Z,8.8
2022-10-23T05:26:49.786Z,9.1
2022-10-23T05:36:52.274Z,9.2
2022-10-23T05:46:53.954Z,9.1
2022-10-23T05:56:56.559Z,9.2
2022-10-23T06:06:52.122Z,9.4
2022-10-23T06:26:56.344Z,9.1
2022-10-23T07:07:04.531Z,10.2
2022-10-23T07:37:17.885Z,10.1
2022-10-23T07:47:12.655Z,10.5
2022-10-23T07:57:22.009Z,10.7
2022-10-23T08:07:17.276Z,11
2022-10-23T08:17:27.582Z,11.2
2022-10-23T08:27:35.102Z,11.3
2022-10-23T08:47:39.112Z,11.9
2022-10-23T09:07:29.159Z,12.7
2022-10-23T09:17:38.195Z,13.1
2022-10-23T09:27:41.024Z,13.5
2022-10-23T09:37:42.862Z,13.9
2022-10-23T09:47:37.309Z,14.2
2022-10-23T09:57:39.798Z,14.5
2022-10-23T10:07:41.975Z,14.8
2022-10-23T10:17:51.024Z,15.1
2022-10-23T10:27:59.891Z,15.4
2022-10-23T10:37:55.305Z,15.5
2022-10-23T10:48:04.789Z,15.5
2022-10-23T10:57:54.227Z,15.6
2022-10-23T11:07:55.143Z,15.7
2022-10-23T11:17:56.971Z,15.9
2022-10-23T11:28:02.814Z,16
2022-10-23T11:38:00.882Z,16.1
2022-10-23T11:58:12.838Z,16.7
2022-10-23T12:08:15.252Z,16.9
2022-10-23T12:18:16.915Z,17.2
2022-10-23T12:28:12.122Z,17.3
2022-10-23T12:48:16.293Z,17.8
2022-10-23T12:58:18.787Z,18.1
2022-10-23T13:08:21.309Z,18.5
2022-10-23T13:18:23.069Z,18.7
2022-10-23T13:38:27.631Z,18.7
2022-10-23T13:58:31.575Z,18.9
2022-10-23T14:08:33.687Z,19
2022-10-23T14:18:36.194Z,19.2
2022-10-23T14:28:38.467Z,19.1
2022-10-23T14:58:44.730Z,18.1
2022-10-23T15:08:46.382Z,18
2022-10-23T15:18:48.643Z,17.1
2022-10-23T15:59:03.571Z,16.5
2022-10-23T16:08:59.101Z,16.2
2022-10-23T16:19:01.249Z,15.8
2022-10-23T16:29:10.811Z,15.6
2022-10-23T16:49:08.325Z,16
2022-10-23T16:59:09.965Z,16
2022-10-23T17:09:12.186Z,15.8
2022-10-23T17:19:26.730Z,15.6
2022-10-23T17:29:16.547Z,15.8
2022-10-23T17:49:20.411Z,15.1
2022-10-23T18:09:24.848Z,15.1
2022-10-23T18:29:28.771Z,15.1
2022-10-23T18:49:40.497Z,15.1
2022-10-23T19:09:51.787Z,15.1
2022-10-23T19:19:46.507Z,15
2022-10-23T19:29:48.871Z,14.9
2022-10-23T19:39:58.317Z,14.9
2022-10-23T19:49:46.091Z,14.7
2022-10-23T19:59:55.643Z,14.6
2022-10-23T20:09:50.664Z,14.9
2022-10-23T20:20:06.580Z,14.6
2022-10-23T20:39:56.759Z,15.7
2022-10-23T20:49:58.565Z,15.7
2022-10-23T21:20:11.693Z,15.8
2022-10-23T21:30:06.640Z,15.8
2022-10-23T22:00:27.129Z,15.4
2022-10-23T22:20:17.149Z,14.9
2022-10-23T22:30:19.317Z,14.6
2022-10-23T22:40:35.294Z,14.6
2022-10-23T22:50:30.454Z,14.7
2022-10-23T23:00:41.246Z,14.7
2022-10-23T23:10:34.360Z,14.9
2022-10-23T23:20:43.860Z,14.9
2022-10-23T23:30:32.398Z,14.8
2022-10-23T23:40:34.339Z,14.6
2022-10-23T23:50:36.501Z,14
